createdAt,value
2019-03-11T00:02:14.213Z,-1.50
2019-03-11T00:04:56.750Z,-1.60
2019-03-11T00:07:39.170Z,-1.50
2019-03-11T00:10:21.725Z,-1.40
2019-03-11T00:13:04.047Z,-1.30
2019-03-11T00:15:46.366Z,-1.20
2019-03-11T00:18:28.541Z,-1.10
2019-03-11T00:21:10.670Z,-1.10
2019-03-11T00:23:52.816Z,-1.00
2019-03-11T00:26:35.282Z,-1.10
2019-03-11T00:29:17.956Z,-1.20
2019-03-11T00:32:00.200Z,-1.20
2019-03-11T00:34:42.761Z,-1.40
2019-03-11T00:37:25.116Z,-1.50
2019-03-11T00:40:07.587Z,-1.60
2019-03-11T00:42:49.855Z,-1.60
2019-03-11T00:45:32.468Z,-1.60
2019-03-11T00:50:57.939Z,-1.60
2019-03-11T00:53:39.735Z,-1.60
2019-03-11T00:56:21.603Z,-1.60
2019-03-11T00:59:04.875Z,-1.60
2019-03-11T01:01:47.771Z,-1.50
2019-03-11T01:04:29.791Z,-1.50
2019-03-11T01:07:12.235Z,-1.50
2019-03-11T01:09:54.242Z,-1.60
2019-03-11T01:12:36.457Z,-1.70
2019-03-11T01:15:18.215Z,-1.70
2019-03-11T01:18:03.731Z,-1.80
2019-03-11T01:20:46.111Z,-1.80
2019-03-11T01:23:28.811Z,-1.80
2019-03-11T01:26:29.604Z,-1.90
2019-03-11T01:29:37.959Z,-1.90
2019-03-11T01:36:03.529Z,-1.90
2019-03-11T01:38:45.502Z,-2.00
2019-03-11T01:41:27.822Z,-2.10
2019-03-11T01:44:10.575Z,-2.20
2019-03-11T01:47:17.517Z,-2.20
2019-03-11T01:52:42.874Z,-2.20
2019-03-11T01:55:52.822Z,-2.20
2019-03-11T02:01:48.381Z,-2.30
2019-03-11T02:04:29.766Z,-2.40
2019-03-11T02:07:11.735Z,-2.50
2019-03-11T02:09:53.975Z,-2.50
2019-03-11T02:15:20.736Z,-2.60
2019-03-11T02:18:08.944Z,-2.60
2019-03-11T02:21:10.128Z,-2.60
2019-03-11T02:23:52.956Z,-2.60
2019-03-11T02:26:35.354Z,-2.60
2019-03-11T02:29:18.139Z,-2.60
2019-03-11T02:34:43.355Z,-2.60
2019-03-11T02:37:26.044Z,-2.60
2019-03-11T02:40:07.841Z,-2.60
2019-03-11T02:42:50.007Z,-2.60
2019-03-11T02:45:32.444Z,-2.60
2019-03-11T02:48:15.073Z,-2.60
2019-03-11T02:50:57.111Z,-2.60
2019-03-11T02:53:39.576Z,-2.60
2019-03-11T02:56:22.423Z,-2.60
2019-03-11T03:01:59.317Z,-2.60
2019-03-11T03:08:01.420Z,-2.60
2019-03-11T03:10:43.675Z,-2.60
2019-03-11T03:13:26.308Z,-2.60
2019-03-11T03:16:08.764Z,-2.50
2019-03-11T03:18:51.055Z,-2.50
2019-03-11T03:21:32.930Z,-2.40
2019-03-11T03:24:15.259Z,-2.40
2019-03-11T03:26:57.904Z,-2.40
2019-03-11T03:29:40.417Z,-2.50
2019-03-11T03:32:22.605Z,-2.50
2019-03-11T03:35:31.205Z,-2.50
2019-03-11T03:38:12.958Z,-2.50
2019-03-11T03:40:56.099Z,-2.50
2019-03-11T03:43:38.488Z,-2.50
2019-03-11T03:46:20.882Z,-2.40
2019-03-11T03:49:03.592Z,-2.40
2019-03-11T03:54:28.623Z,-2.30
2019-03-11T03:57:11.247Z,-2.30
2019-03-11T03:59:53.895Z,-2.30
2019-03-11T04:02:36.483Z,-2.30
2019-03-11T04:05:18.462Z,-2.30
2019-03-11T04:08:00.148Z,-2.30
2019-03-11T04:10:43.047Z,-2.30
2019-03-11T04:13:25.460Z,-2.20
2019-03-11T04:16:07.774Z,-2.10
2019-03-11T04:18:50.064Z,-2.20
2019-03-11T04:21:31.989Z,-2.10
2019-03-11T04:27:27.350Z,-1.90
2019-03-11T04:30:09.320Z,-1.80
2019-03-11T04:32:51.895Z,-1.70
2019-03-11T04:35:34.329Z,-1.60
2019-03-11T04:38:19.571Z,-1.50
2019-03-11T04:44:15.591Z,-1.50
2019-03-11T04:46:58.275Z,-1.70
2019-03-11T04:49:40.514Z,-1.80
2019-03-11T04:55:07.511Z,-1.70
2019-03-11T04:57:49.750Z,-1.60
2019-03-11T05:00:32.705Z,-1.70
2019-03-11T05:03:15.427Z,-1.70
2019-03-11T05:05:57.742Z,-1.60
2019-03-11T05:08:39.527Z,-1.60
2019-03-11T05:11:21.256Z,-1.60
2019-03-11T05:14:03.110Z,-1.60
2019-03-11T05:19:38.807Z,-1.60
2019-03-11T05:22:21.259Z,-1.60
2019-03-11T05:25:03.855Z,-1.60
2019-03-11T05:27:45.754Z,-1.70
2019-03-11T05:30:27.810Z,-1.80
2019-03-11T05:33:10.204Z,-1.80
2019-03-11T05:35:52.635Z,-1.90
2019-03-11T05:38:34.823Z,-1.90
2019-03-11T05:44:00.192Z,-1.80
2019-03-11T05:46:42.639Z,-1.80
2019-03-11T05:49:24.874Z,-1.80
2019-03-11T05:52:07.107Z,-1.70
2019-03-11T05:54:50.061Z,-1.70
2019-03-11T05:57:51.107Z,-1.60
2019-03-11T06:00:33.875Z,-1.60
2019-03-11T06:03:16.503Z,-1.60
2019-03-11T06:06:01.694Z,-1.50
2019-03-11T06:08:44.007Z,-1.50
2019-03-11T06:11:25.923Z,-1.40
2019-03-11T06:17:47.740Z,-0.70
2019-03-11T06:23:13.871Z,0.60
2019-03-11T06:25:56.233Z,1.10
2019-03-11T06:28:38.515Z,1.70
2019-03-11T06:31:20.623Z,2.50
2019-03-11T06:33:51.042Z,3.20
2019-03-11T06:36:21.750Z,4.10
2019-03-11T06:38:52.131Z,4.90
2019-03-11T06:41:22.720Z,5.70
2019-03-11T06:47:22.494Z,7.20
2019-03-11T06:53:17.559Z,8.30
2019-03-11T06:55:59.848Z,8.80
2019-03-11T06:58:42.388Z,9.20
2019-03-11T07:01:25.069Z,9.80
2019-03-11T07:04:07.807Z,10.50
2019-03-11T07:10:28.671Z,11.60
2019-03-11T07:13:10.746Z,12.30
2019-03-11T07:15:41.507Z,12.90
2019-03-11T07:24:27.234Z,14.20
2019-03-11T07:27:09.117Z,14.50
2019-03-11T07:29:39.613Z,15.00
2019-03-11T07:32:29.487Z,15.30
2019-03-11T07:35:19.275Z,15.60
2019-03-11T07:38:21.095Z,16.00
2019-03-11T07:41:03.875Z,16.30
2019-03-11T07:43:46.142Z,16.30
2019-03-11T07:49:13.015Z,16.10
2019-03-11T07:51:55.695Z,15.90
2019-03-11T07:54:38.210Z,16.20
2019-03-11T07:57:20.809Z,16.50
2019-03-11T08:00:02.700Z,16.90
2019-03-11T08:02:45.262Z,17.00
2019-03-11T08:05:27.095Z,17.40
2019-03-11T08:08:09.303Z,17.80
2019-03-11T08:10:51.939Z,18.00
2019-03-11T08:13:34.256Z,17.80
2019-03-11T08:16:16.095Z,17.50
2019-03-11T08:18:58.034Z,17.70
2019-03-11T08:21:40.154Z,17.80
2019-03-11T08:24:21.999Z,18.00
2019-03-11T08:27:04.264Z,18.30
2019-03-11T08:29:46.387Z,18.70
2019-03-11T08:32:29.047Z,19.00
2019-03-11T08:35:11.031Z,19.00
2019-03-11T08:37:53.193Z,19.20
2019-03-11T08:40:23.678Z,19.40
2019-03-11T08:46:26.400Z,19.40
2019-03-11T08:49:09.371Z,19.30
2019-03-11T08:51:51.968Z,19.30
2019-03-11T08:54:34.191Z,19.20
2019-03-11T08:57:16.492Z,19.20
2019-03-11T08:59:59.222Z,19.20
2019-03-11T09:02:41.109Z,19.40
2019-03-11T09:05:23.259Z,19.60
2019-03-11T09:08:05.571Z,19.40
2019-03-11T09:10:47.891Z,19.50
2019-03-11T09:13:30.666Z,19.70
2019-03-11T09:16:13.239Z,19.80
2019-03-11T09:18:55.119Z,19.70
2019-03-11T09:21:37.606Z,19.40
2019-03-11T09:24:20.567Z,19.10
2019-03-11T09:27:03.051Z,19.00
2019-03-11T09:29:45.359Z,18.70
2019-03-11T09:32:27.944Z,18.50
2019-03-11T09:35:10.079Z,18.20
2019-03-11T09:37:52.242Z,17.90
2019-03-11T09:40:34.729Z,17.80
2019-03-11T09:43:17.425Z,17.90
2019-03-11T09:46:00.157Z,17.70
2019-03-11T09:48:44.822Z,17.40
2019-03-11T09:51:26.385Z,16.90
2019-03-11T09:54:09.035Z,16.40
2019-03-11T09:56:51.428Z,16.40
2019-03-11T09:59:33.355Z,16.40
2019-03-11T10:02:16.997Z,16.40
2019-03-11T10:04:59.192Z,16.90
2019-03-11T10:07:41.641Z,17.50
2019-03-11T10:10:24.219Z,18.20
2019-03-11T10:13:06.465Z,19.00
2019-03-11T10:15:50.159Z,19.50
2019-03-11T10:18:32.832Z,20.10
2019-03-11T10:21:15.203Z,20.60
2019-03-11T10:23:59.261Z,21.20
2019-03-11T10:26:41.495Z,21.80
2019-03-11T10:29:23.710Z,21.60
2019-03-11T10:32:06.054Z,20.80
2019-03-11T10:34:47.852Z,19.80
2019-03-11T10:37:30.275Z,19.00
2019-03-11T10:40:12.759Z,18.00
2019-03-11T10:42:55.435Z,16.90
2019-03-11T10:45:37.545Z,14.80
2019-03-11T10:48:20.367Z,13.70
2019-03-11T10:51:02.793Z,13.00
2019-03-11T10:53:45.566Z,12.70
2019-03-11T10:56:27.859Z,12.70
2019-03-11T10:59:09.719Z,12.50
2019-03-11T11:01:52.539Z,12.20
2019-03-11T11:04:34.993Z,11.60
2019-03-11T11:07:17.291Z,11.20
2019-03-11T11:13:29.653Z,11.10
2019-03-11T11:16:11.859Z,11.70
2019-03-11T11:18:54.263Z,11.90
2019-03-11T11:21:36.707Z,12.00
2019-03-11T11:24:18.672Z,12.00
2019-03-11T11:27:00.768Z,12.10
2019-03-11T11:29:42.811Z,12.10
2019-03-11T11:32:24.663Z,11.90
2019-03-11T11:35:06.567Z,11.50
2019-03-11T11:37:49.115Z,11.30
2019-03-11T11:40:31.833Z,11.10
2019-03-11T11:43:14.355Z,10.90
2019-03-11T11:45:44.842Z,10.90
2019-03-11T11:48:34.691Z,11.10
2019-03-11T11:54:18.827Z,12.30
2019-03-11T11:57:01.195Z,12.60
2019-03-11T11:59:53.287Z,13.00
2019-03-11T12:02:26.915Z,13.60
2019-03-11T12:05:09.493Z,14.00
2019-03-11T12:07:51.859Z,13.70
2019-03-11T12:10:33.742Z,13.00
2019-03-11T12:13:15.903Z,12.60
2019-03-11T12:15:58.373Z,12.70
2019-03-11T12:18:40.151Z,12.80
2019-03-11T12:21:22.555Z,13.50
2019-03-11T12:24:05.052Z,13.70
2019-03-11T12:26:47.050Z,13.80
2019-03-11T12:29:28.828Z,14.10
2019-03-11T12:32:10.640Z,14.00
2019-03-11T12:34:41.063Z,13.60
2019-03-11T12:40:32.042Z,12.60
2019-03-11T12:43:33.383Z,12.50
2019-03-11T12:46:15.906Z,12.00
2019-03-11T12:48:58.074Z,11.90
2019-03-11T12:51:49.295Z,12.40
2019-03-11T12:54:25.076Z,12.30
2019-03-11T12:57:06.999Z,12.00
2019-03-11T12:59:49.467Z,12.10
2019-03-11T13:02:31.935Z,12.30
2019-03-11T13:05:14.307Z,13.00
2019-03-11T13:07:56.800Z,13.30
2019-03-11T13:10:39.494Z,13.70
2019-03-11T13:13:21.525Z,13.80
2019-03-11T13:16:03.490Z,13.90
2019-03-11T13:18:45.996Z,13.80
2019-03-11T13:21:28.647Z,14.00
2019-03-11T13:24:10.496Z,13.90
2019-03-11T13:26:41.013Z,13.90
2019-03-11T13:29:23.139Z,13.90
2019-03-11T13:32:05.687Z,13.80
2019-03-11T13:34:47.858Z,13.70
2019-03-11T13:37:29.799Z,13.40
2019-03-11T13:43:50.963Z,13.10
2019-03-11T13:46:33.455Z,12.90
2019-03-11T13:49:16.202Z,12.70
2019-03-11T13:51:58.636Z,12.50
2019-03-11T13:54:41.251Z,12.40
2019-03-11T13:57:23.051Z,12.30
2019-03-11T14:00:05.023Z,12.20
2019-03-11T14:02:47.072Z,12.10
2019-03-11T14:05:28.823Z,12.10
2019-03-11T14:08:10.828Z,12.00
2019-03-11T14:10:53.482Z,11.90
2019-03-11T14:13:35.843Z,11.90
2019-03-11T14:16:17.901Z,11.80
2019-03-11T14:19:00.594Z,11.70
2019-03-11T14:21:43.399Z,11.60
2019-03-11T14:24:25.287Z,11.50
2019-03-11T14:27:07.900Z,11.40
2019-03-11T14:29:51.335Z,11.10
2019-03-11T14:32:33.869Z,10.70
2019-03-11T14:35:15.883Z,10.40
2019-03-11T14:37:58.523Z,10.10
2019-03-11T14:40:41.235Z,9.80
2019-03-11T14:43:23.299Z,9.50
2019-03-11T14:46:05.387Z,9.20
2019-03-11T14:48:47.984Z,9.00
2019-03-11T14:51:30.515Z,8.90
2019-03-11T14:54:12.183Z,8.80
2019-03-11T14:56:54.371Z,8.40
2019-03-11T14:59:37.110Z,8.10
2019-03-11T15:02:19.175Z,7.70
2019-03-11T15:05:01.241Z,7.40
2019-03-11T15:07:45.760Z,7.00
2019-03-11T15:10:28.190Z,6.40
2019-03-11T15:13:10.220Z,6.10
2019-03-11T15:15:40.695Z,6.00
2019-03-11T15:18:30.287Z,5.90
2019-03-11T15:21:39.203Z,5.80
2019-03-11T15:24:59.405Z,5.80
2019-03-11T15:33:51.354Z,5.50
2019-03-11T15:36:34.508Z,5.50
2019-03-11T15:39:17.663Z,5.40
2019-03-11T15:41:59.648Z,5.40
2019-03-11T15:48:00.915Z,5.30
2019-03-11T15:50:43.303Z,5.10
2019-03-11T15:53:25.181Z,4.90
2019-03-11T15:58:55.237Z,4.80
2019-03-11T16:01:37.370Z,4.80
2019-03-11T16:04:20.286Z,4.80
2019-03-11T16:07:02.967Z,4.70
2019-03-11T16:09:45.359Z,4.70
2019-03-11T16:12:27.146Z,4.70
2019-03-11T16:15:09.776Z,4.70
2019-03-11T16:17:40.361Z,4.50
2019-03-11T16:20:29.838Z,4.40
2019-03-11T16:23:31.235Z,4.30
2019-03-11T16:26:13.326Z,4.20
2019-03-11T16:28:55.751Z,4.10
2019-03-11T16:31:38.315Z,4.00
2019-03-11T16:34:21.029Z,4.00
2019-03-11T16:37:03.659Z,4.00
2019-03-11T16:39:46.344Z,3.90
2019-03-11T16:42:28.640Z,3.90
2019-03-11T16:45:11.291Z,3.70
2019-03-11T16:47:41.702Z,3.70
2019-03-11T16:53:25.819Z,3.60
2019-03-11T16:56:08.275Z,3.50
2019-03-11T16:58:50.383Z,3.50
2019-03-11T17:01:33.148Z,3.50
2019-03-11T17:04:14.947Z,3.50
2019-03-11T17:06:57.604Z,3.40
2019-03-11T17:13:18.600Z,3.20
2019-03-11T17:16:00.627Z,3.00
2019-03-11T17:18:43.107Z,2.90
2019-03-11T17:24:04.752Z,2.90
2019-03-11T17:26:49.507Z,2.70
2019-03-11T17:29:31.837Z,2.70
2019-03-11T17:32:13.807Z,2.80
2019-03-11T17:34:56.747Z,2.80
2019-03-11T17:37:39.085Z,2.70
2019-03-11T17:40:21.813Z,2.70
2019-03-11T17:43:23.100Z,2.70
2019-03-11T17:46:05.510Z,2.70
2019-03-11T17:48:47.827Z,2.70
2019-03-11T17:51:30.398Z,2.70
2019-03-11T17:54:12.189Z,2.70
2019-03-11T17:56:54.670Z,2.70
2019-03-11T17:59:36.834Z,2.70
2019-03-11T18:02:18.788Z,2.70
2019-03-11T18:05:00.901Z,2.70
2019-03-11T18:07:43.255Z,2.70
2019-03-11T18:10:25.560Z,2.60
2019-03-11T18:13:08.003Z,2.60
2019-03-11T18:18:38.096Z,2.50
2019-03-11T18:21:20.091Z,2.40
2019-03-11T18:24:02.785Z,2.40
2019-03-11T18:27:11.363Z,2.40
2019-03-11T18:29:54.440Z,2.30
2019-03-11T18:32:36.189Z,2.30
2019-03-11T18:35:18.599Z,2.20
2019-03-11T18:38:04.598Z,2.20
2019-03-11T18:40:56.681Z,2.10
2019-03-11T18:43:42.997Z,2.10
2019-03-11T18:46:22.755Z,2.10
2019-03-11T18:49:05.436Z,2.10
2019-03-11T18:51:48.082Z,2.20
2019-03-11T18:54:30.159Z,2.20
2019-03-11T18:57:12.260Z,2.10
2019-03-11T18:59:55.099Z,2.00
2019-03-11T19:02:37.574Z,1.90
2019-03-11T19:05:20.096Z,1.90
2019-03-11T19:08:02.148Z,1.80
2019-03-11T19:10:44.183Z,1.80
2019-03-11T19:13:26.891Z,1.80
2019-03-11T19:16:08.970Z,1.80
2019-03-11T19:18:51.108Z,1.90
2019-03-11T19:21:33.816Z,1.90
2019-03-11T19:24:16.080Z,1.90
2019-03-11T19:26:58.694Z,1.90
2019-03-11T19:29:41.544Z,1.90
2019-03-11T19:32:23.845Z,1.90
2019-03-11T19:35:05.590Z,1.90
2019-03-11T19:37:48.400Z,1.80
2019-03-11T19:40:31.253Z,1.70
2019-03-11T19:43:14.083Z,1.60
2019-03-11T19:45:56.557Z,1.50
2019-03-11T19:48:39.142Z,1.40
2019-03-11T19:51:21.681Z,1.40
2019-03-11T19:54:04.302Z,1.30
2019-03-11T19:56:46.939Z,1.20
2019-03-11T19:59:29.172Z,1.20
2019-03-11T20:02:11.263Z,1.20
2019-03-11T20:04:41.710Z,1.20
2019-03-11T20:13:27.224Z,1.20
2019-03-11T20:16:09.994Z,1.20
2019-03-11T20:18:52.126Z,1.10
2019-03-11T20:21:34.647Z,1.10
2019-03-11T20:24:17.223Z,1.20
2019-03-11T20:26:59.303Z,1.20
2019-03-11T20:29:41.976Z,1.20
2019-03-11T20:32:24.766Z,1.20
2019-03-11T20:35:07.496Z,1.10
2019-03-11T20:37:49.625Z,1.10
2019-03-11T20:40:32.507Z,1.00
2019-03-11T20:43:14.608Z,0.90
2019-03-11T20:45:57.292Z,0.80
2019-03-11T20:48:39.563Z,0.70
2019-03-11T20:51:22.411Z,0.60
2019-03-11T20:56:49.769Z,0.30
2019-03-11T20:59:31.567Z,0.10
2019-03-11T21:02:13.391Z,0.10
2019-03-11T21:04:55.174Z,0.10
2019-03-11T21:07:37.517Z,0.10
2019-03-11T21:10:20.279Z,0.10
2019-03-11T21:13:02.340Z,0.20
2019-03-11T21:15:44.331Z,0.20
2019-03-11T21:18:26.615Z,0.10
2019-03-11T21:21:09.481Z,0.10
2019-03-11T21:24:01.600Z,0.00
2019-03-11T21:26:36.507Z,0.00
2019-03-11T21:29:18.421Z,0.00
2019-03-11T21:32:00.625Z,0.10
2019-03-11T21:34:42.993Z,0.10
2019-03-11T21:37:26.042Z,0.00
2019-03-11T21:40:08.495Z,0.00
2019-03-11T21:42:51.875Z,-0.10
2019-03-11T21:45:34.906Z,0.00
2019-03-11T21:48:17.212Z,0.00
2019-03-11T21:50:59.207Z,0.00
2019-03-11T21:53:41.003Z,0.10
2019-03-11T21:56:23.797Z,0.20
2019-03-11T21:59:05.974Z,0.40
2019-03-11T22:01:47.699Z,0.50
2019-03-11T22:04:29.788Z,0.50
2019-03-11T22:07:11.559Z,0.50
2019-03-11T22:09:53.967Z,0.60
2019-03-11T22:12:36.027Z,0.70
2019-03-11T22:15:18.551Z,0.70
2019-03-11T22:18:00.855Z,0.70
2019-03-11T22:20:42.810Z,0.60
2019-03-11T22:23:24.643Z,0.50
2019-03-11T22:26:06.328Z,0.40
2019-03-11T22:28:48.383Z,0.40
2019-03-11T22:31:31.148Z,0.30
2019-03-11T22:34:13.411Z,0.40
2019-03-11T22:36:43.815Z,0.50
2019-03-11T22:42:34.855Z,0.40
2019-03-11T22:45:36.302Z,0.40
2019-03-11T22:48:20.867Z,0.40
2019-03-11T22:51:03.168Z,0.50
2019-03-11T22:53:45.787Z,0.50
2019-03-11T22:56:27.995Z,0.40
2019-03-11T22:59:10.069Z,0.40
2019-03-11T23:01:51.967Z,0.40
2019-03-11T23:04:34.166Z,0.20
2019-03-11T23:07:16.182Z,0.10
2019-03-11T23:09:59.038Z,0.00
2019-03-11T23:12:41.124Z,0.00
2019-03-11T23:15:24.231Z,0.00
2019-03-11T23:18:06.612Z,-0.10
2019-03-11T23:20:49.298Z,-0.10
2019-03-11T23:23:31.603Z,-0.10
2019-03-11T23:26:14.431Z,-0.20
2019-03-11T23:28:56.292Z,-0.20
2019-03-11T23:31:38.795Z,-0.20
2019-03-11T23:34:21.095Z,-0.30
2019-03-11T23:37:03.666Z,-0.30
2019-03-11T23:39:46.305Z,-0.40
2019-03-11T23:42:28.574Z,-0.40
2019-03-11T23:45:10.429Z,-0.40
2019-03-11T23:47:52.552Z,-0.50
2019-03-11T23:50:34.375Z,-0.40
2019-03-11T23:53:16.395Z,-0.50
2019-03-11T23:55:58.567Z,-0.50
2019-03-11T23:58:40.395Z,-0.50
